sensor_id;sensor_type;location;lat;lon;timestamp;pressure;altitude;pressure_sealevel;temperature;humidity
30949;BME280;17637;51.984;21.208;2023-01-28T00:02:22;100993.72;;;-0.57;78.12
30949;BME280;17637;51.984;21.208;2023-01-28T00:04:54;101001.47;;;-0.63;77.98
30949;BME280;17637;51.984;21.208;2023-01-28T00:07:26;100994.53;;;-0.53;77.84
30949;BME280;17637;51.984;21.208;2023-01-28T00:09:58;100972.50;;;-0.60;77.89
30949;BME280;17637;51.984;21.208;2023-01-28T00:12:30;100980.03;;;-0.53;77.72
30949;BME280;17637;51.984;21.208;2023-01-28T00:15:02;100969.09;;;-0.59;77.93
30949;BME280;17637;51.984;21.208;2023-01-28T00:17:34;100989.38;;;-0.50;77.40
30949;BME280;17637;51.984;21.208;2023-01-28T00:20:08;100989.38;;;-0.50;77.31
30949;BME280;17637;51.984;21.208;2023-01-28T00:22:40;100996.88;;;-0.39;77.44
30949;BME280;17637;51.984;21.208;2023-01-28T00:25:12;101000.25;;;-0.37;77.15
30949;BME280;17637;51.984;21.208;2023-01-28T00:27:44;100972.44;;;-0.56;77.47
30949;BME280;17637;51.984;21.208;2023-01-28T00:30:17;100986.78;;;-0.47;77.41
30949;BME280;17637;51.984;21.208;2023-01-28T00:32:50;100970.69;;;-0.52;77.11
30949;BME280;17637;51.984;21.208;2023-01-28T00:35:22;100992.50;;;-0.32;76.92
30949;BME280;17637;51.984;21.208;2023-01-28T00:37:54;100994.19;;;-0.31;76.83
30949;BME280;17637;51.984;21.208;2023-01-28T00:40:26;100991.03;;;-0.46;77.23
30949;BME280;17637;51.984;21.208;2023-01-28T00:42:58;100957.38;;;-0.71;77.49
30949;BME280;17637;51.984;21.208;2023-01-28T00:45:32;100990.97;;;-0.43;77.47
30949;BME280;17637;51.984;21.208;2023-01-28T00:48:05;100993.56;;;-0.44;77.35
30949;BME280;17637;51.984;21.208;2023-01-28T00:50:37;100983.34;;;-0.44;77.18
30949;BME280;17637;51.984;21.208;2023-01-28T00:53:10;101006.13;;;-0.34;77.14
30949;BME280;17637;51.984;21.208;2023-01-28T00:55:42;100986.84;;;-0.52;77.35
30949;BME280;17637;51.984;21.208;2023-01-28T00:58:14;100981.81;;;-0.56;77.66
30949;BME280;17637;51.984;21.208;2023-01-28T01:00:46;100935.34;;;-0.77;77.18
30949;BME280;17637;51.984;21.208;2023-01-28T01:03:18;101000.41;;;-0.48;77.50
30949;BME280;17637;51.984;21.208;2023-01-28T01:05:50;100978.47;;;-0.60;77.60
30949;BME280;17637;51.984;21.208;2023-01-28T01:08:22;100991.97;;;-0.53;77.47
30949;BME280;17637;51.984;21.208;2023-01-28T01:11:06;101004.59;;;-0.44;77.61
30949;BME280;17637;51.984;21.208;2023-01-28T01:13:38;100992.69;;;-0.45;77.53
30949;BME280;17637;51.984;21.208;2023-01-28T01:16:12;100991.88;;;-0.47;77.54
30949;BME280;17637;51.984;21.208;2023-01-28T01:18:49;100992.63;;;-0.40;77.54
30949;BME280;17637;51.984;21.208;2023-01-28T01:21:24;100965.00;;;-0.70;77.54
30949;BME280;17637;51.984;21.208;2023-01-28T01:23:57;100996.25;;;-0.54;77.25
30949;BME280;17637;51.984;21.208;2023-01-28T01:26:29;100968.16;;;-0.55;77.54
30949;BME280;17637;51.984;21.208;2023-01-28T01:29:04;100971.53;;;-0.52;77.24
30949;BME280;17637;51.984;21.208;2023-01-28T01:31:36;100980.88;;;-0.51;77.31
30949;BME280;17637;51.984;21.208;2023-01-28T01:34:08;100985.88;;;-0.44;77.20
30949;BME280;17637;51.984;21.208;2023-01-28T01:36:40;100960.63;;;-0.61;77.23
30949;BME280;17637;51.984;21.208;2023-01-28T01:39:14;100954.69;;;-0.63;77.13
30949;BME280;17637;51.984;21.208;2023-01-28T01:41:46;100991.91;;;-0.48;77.28
30949;BME280;17637;51.984;21.208;2023-01-28T01:44:57;101002.88;;;-0.42;77.36
30949;BME280;17637;51.984;21.208;2023-01-28T01:50:33;100996.09;;;-0.44;77.40
30949;BME280;17637;51.984;21.208;2023-01-28T01:53:15;100977.72;;;-0.68;77.74
30949;BME280;17637;51.984;21.208;2023-01-28T01:55:51;100917.09;;;-1.08;77.63
30949;BME280;17637;51.984;21.208;2023-01-28T01:58:29;101004.69;;;-0.50;77.47
30949;BME280;17637;51.984;21.208;2023-01-28T02:01:03;100985.31;;;-0.62;77.64
30949;BME280;17637;51.984;21.208;2023-01-28T02:06:14;100994.34;;;-0.41;77.11
30949;BME280;17637;51.984;21.208;2023-01-28T02:08:46;100995.25;;;-0.43;77.05
30949;BME280;17637;51.984;21.208;2023-01-28T02:11:18;100990.22;;;-0.50;77.05
30949;BME280;17637;51.984;21.208;2023-01-28T02:13:53;100962.28;;;-0.60;77.12
30949;BME280;17637;51.984;21.208;2023-01-28T02:16:28;100997.66;;;-0.34;76.85
30949;BME280;17637;51.984;21.208;2023-01-28T02:19:01;100936.97;;;-0.73;76.75
30949;BME280;17637;51.984;21.208;2023-01-28T02:30:10;100994.38;;;-0.44;77.01
30949;BME280;17637;51.984;21.208;2023-01-28T02:33:07;100964.13;;;-0.69;77.40
30949;BME280;17637;51.984;21.208;2023-01-28T02:35:52;100984.34;;;-0.55;77.36
30949;BME280;17637;51.984;21.208;2023-01-28T02:38:31;100985.28;;;-0.59;77.48
30949;BME280;17637;51.984;21.208;2023-01-28T02:41:07;100990.22;;;-0.50;77.69
30949;BME280;17637;51.984;21.208;2023-01-28T02:43:43;100996.19;;;-0.51;77.79
30949;BME280;17637;51.984;21.208;2023-01-28T02:46:32;100996.22;;;-0.52;77.80
30949;BME280;17637;51.984;21.208;2023-01-28T02:52:25;101002.16;;;-0.52;77.96
30949;BME280;17637;51.984;21.208;2023-01-28T02:55:42;100999.59;;;-0.48;77.98
30949;BME280;17637;51.984;21.208;2023-01-28T03:01:42;101004.16;;;-0.71;78.84
30949;BME280;17637;51.984;21.208;2023-01-28T03:04:09;101006.44;;;-0.52;78.08
30949;BME280;17637;51.984;21.208;2023-01-28T03:06:49;100997.25;;;-0.64;77.87
30949;BME280;17637;51.984;21.208;2023-01-28T03:09:24;100980.25;;;-0.65;77.89
30949;BME280;17637;51.984;21.208;2023-01-28T03:12:02;100986.16;;;-0.61;77.95
30949;BME280;17637;51.984;21.208;2023-01-28T03:15:00;100976.94;;;-0.70;78.15
30949;BME280;17637;51.984;21.208;2023-01-28T03:20:59;101008.06;;;-0.48;77.79
30949;BME280;17637;51.984;21.208;2023-01-28T03:30:12;100998.94;;;-0.63;78.00
30949;BME280;17637;51.984;21.208;2023-01-28T03:33:05;101004.06;;;-0.64;78.53
30949;BME280;17637;51.984;21.208;2023-01-28T03:35:56;100998.00;;;-0.57;77.91
30949;BME280;17637;51.984;21.208;2023-01-28T03:38:47;101003.88;;;-0.52;78.25
30949;BME280;17637;51.984;21.208;2023-01-28T03:41:21;101001.34;;;-0.52;77.99
30949;BME280;17637;51.984;21.208;2023-01-28T03:43:54;101006.47;;;-0.54;78.12
30949;BME280;17637;51.984;21.208;2023-01-28T03:46:26;100988.94;;;-0.78;78.67
30949;BME280;17637;51.984;21.208;2023-01-28T03:48:58;100996.56;;;-0.75;79.01
30949;BME280;17637;51.984;21.208;2023-01-28T03:51:30;100942.50;;;-1.02;78.59
30949;BME280;17637;51.984;21.208;2023-01-28T03:54:02;100998.16;;;-0.67;78.54
30949;BME280;17637;51.984;21.208;2023-01-28T03:56:34;100997.25;;;-0.66;78.66
30949;BME280;17637;51.984;21.208;2023-01-28T03:59:08;100991.38;;;-0.69;78.32
30949;BME280;17637;51.984;21.208;2023-01-28T04:01:40;100986.28;;;-0.71;78.15
30949;BME280;17637;51.984;21.208;2023-01-28T04:04:12;100998.84;;;-0.57;78.03
30949;BME280;17637;51.984;21.208;2023-01-28T04:06:53;101013.38;;;-0.62;78.48
30949;BME280;17637;51.984;21.208;2023-01-28T04:09:25;100993.09;;;-0.71;78.60
30949;BME280;17637;51.984;21.208;2023-01-28T04:11:57;100991.38;;;-0.71;78.52
30949;BME280;17637;51.984;21.208;2023-01-28T04:14:30;101005.66;;;-0.57;78.01
30949;BME280;17637;51.984;21.208;2023-01-28T04:17:02;101012.34;;;-0.48;77.51
30949;BME280;17637;51.984;21.208;2023-01-28T04:19:34;101005.44;;;-0.42;77.67
30949;BME280;17637;51.984;21.208;2023-01-28T04:22:09;101005.31;;;-0.34;77.69
30949;BME280;17637;51.984;21.208;2023-01-28T04:24:42;100978.41;;;-0.57;77.41
30949;BME280;17637;51.984;21.208;2023-01-28T04:27:15;100997.03;;;-0.48;77.42
30949;BME280;17637;51.984;21.208;2023-01-28T04:29:47;101003.81;;;-0.46;77.24
30949;BME280;17637;51.984;21.208;2023-01-28T04:32:19;101003.84;;;-0.51;77.88
30949;BME280;17637;51.984;21.208;2023-01-28T04:34:51;100986.97;;;-0.59;78.04
30949;BME280;17637;51.984;21.208;2023-01-28T04:37:23;101006.47;;;-0.55;78.11
30949;BME280;17637;51.984;21.208;2023-01-28T04:39:55;101002.97;;;-0.48;77.73
30949;BME280;17637;51.984;21.208;2023-01-28T04:42:27;101003.03;;;-0.53;77.76
30949;BME280;17637;51.984;21.208;2023-01-28T04:44:59;100977.59;;;-0.60;77.90
30949;BME280;17637;51.984;21.208;2023-01-28T04:47:31;100983.81;;;-0.75;77.74
30949;BME280;17637;51.984;21.208;2023-01-28T04:50:03;100991.28;;;-0.61;77.82
30949;BME280;17637;51.984;21.208;2023-01-28T04:52:35;101005.69;;;-0.60;78.35
30949;BME280;17637;51.984;21.208;2023-01-28T04:55:08;101010.00;;;-0.62;78.04
30949;BME280;17637;51.984;21.208;2023-01-28T04:57:40;101010.78;;;-0.57;78.29
30949;BME280;17637;51.984;21.208;2023-01-28T05:00:12;100998.19;;;-0.70;78.69
30949;BME280;17637;51.984;21.208;2023-01-28T05:02:44;100998.28;;;-0.77;78.70
30949;BME280;17637;51.984;21.208;2023-01-28T05:05:16;101013.19;;;-0.48;78.35
30949;BME280;17637;51.984;21.208;2023-01-28T05:07:53;101004.75;;;-0.53;78.11
30949;BME280;17637;51.984;21.208;2023-01-28T05:10:26;101017.41;;;-0.45;78.10
30949;BME280;17637;51.984;21.208;2023-01-28T05:12:58;101004.81;;;-0.58;77.84
30949;BME280;17637;51.984;21.208;2023-01-28T05:15:33;101003.25;;;-0.67;78.49
30949;BME280;17637;51.984;21.208;2023-01-28T05:18:05;101016.69;;;-0.55;78.29
30949;BME280;17637;51.984;21.208;2023-01-28T05:20:37;101000.53;;;-0.56;78.22
30949;BME280;17637;51.984;21.208;2023-01-28T05:23:09;101004.75;;;-0.53;78.33
30949;BME280;17637;51.984;21.208;2023-01-28T05:25:41;101015.97;;;-0.63;79.10
30949;BME280;17637;51.984;21.208;2023-01-28T05:28:13;100987.06;;;-0.64;78.82
30949;BME280;17637;51.984;21.208;2023-01-28T05:30:45;100997.44;;;-0.76;79.85
30949;BME280;17637;51.984;21.208;2023-01-28T05:33:17;101004.16;;;-0.71;79.83
30949;BME280;17637;51.984;21.208;2023-01-28T05:35:49;100983.22;;;-0.94;80.52
30949;BME280;17637;51.984;21.208;2023-01-28T05:38:21;101015.94;;;-0.62;80.47
30949;BME280;17637;51.984;21.208;2023-01-28T05:40:53;101026.13;;;-0.59;80.41
30949;BME280;17637;51.984;21.208;2023-01-28T05:43:25;100996.34;;;-0.60;80.19
30949;BME280;17637;51.984;21.208;2023-01-28T05:45:57;101015.00;;;-0.55;80.37
30949;BME280;17637;51.984;21.208;2023-01-28T05:48:29;101030.91;;;-0.39;79.92
30949;BME280;17637;51.984;21.208;2023-01-28T05:51:01;101028.31;;;-0.36;79.65
30949;BME280;17637;51.984;21.208;2023-01-28T05:53:33;101031.72;;;-0.35;79.74
30949;BME280;17637;51.984;21.208;2023-01-28T05:56:05;101014.72;;;-0.38;79.23
30949;BME280;17637;51.984;21.208;2023-01-28T05:58:37;101019.81;;;-0.36;79.23
30949;BME280;17637;51.984;21.208;2023-01-28T06:01:09;101007.28;;;-0.52;79.08
30949;BME280;17637;51.984;21.208;2023-01-28T06:03:43;101013.03;;;-0.39;79.23
30949;BME280;17637;51.984;21.208;2023-01-28T06:06:15;101012.13;;;-0.35;79.38
30949;BME280;17637;51.984;21.208;2023-01-28T06:08:47;101019.91;;;-0.42;79.36
30949;BME280;17637;51.984;21.208;2023-01-28T06:11:20;101025.63;;;-0.26;79.02
30949;BME280;17637;51.984;21.208;2023-01-28T06:13:52;101029.13;;;-0.34;79.05
30949;BME280;17637;51.984;21.208;2023-01-28T06:16:24;101026.69;;;-0.41;79.27
30949;BME280;17637;51.984;21.208;2023-01-28T06:18:56;101038.78;;;-0.53;79.64
30949;BME280;17637;51.984;21.208;2023-01-28T06:21:28;100997.28;;;-0.67;79.66
30949;BME280;17637;51.984;21.208;2023-01-28T06:24:00;101036.78;;;-0.34;79.59
30949;BME280;17637;51.984;21.208;2023-01-28T06:26:32;101023.47;;;-0.51;79.66
30949;BME280;17637;51.984;21.208;2023-01-28T06:29:04;101032.84;;;-0.53;79.89
30949;BME280;17637;51.984;21.208;2023-01-28T06:31:36;101011.66;;;-0.60;79.68
30949;BME280;17637;51.984;21.208;2023-01-28T06:34:09;101024.16;;;-0.43;79.52
30949;BME280;17637;51.984;21.208;2023-01-28T06:36:41;101041.03;;;-0.32;79.53
30949;BME280;17637;51.984;21.208;2023-01-28T06:39:13;101052.22;;;-0.40;79.65
30949;BME280;17637;51.984;21.208;2023-01-28T06:41:45;101047.06;;;-0.37;79.67
30949;BME280;17637;51.984;21.208;2023-01-28T06:44:17;101049.78;;;-0.49;79.58
30949;BME280;17637;51.984;21.208;2023-01-28T06:46:49;101029.44;;;-0.55;79.50
30949;BME280;17637;51.984;21.208;2023-01-28T06:49:21;101042.94;;;-0.45;79.39
30949;BME280;17637;51.984;21.208;2023-01-28T06:51:53;101037.13;;;-0.55;79.11
30949;BME280;17637;51.984;21.208;2023-01-28T06:54:25;101061.66;;;-0.43;79.14
30949;BME280;17637;51.984;21.208;2023-01-28T06:56:57;101068.34;;;-0.36;78.97
30949;BME280;17637;51.984;21.208;2023-01-28T06:59:29;101066.75;;;-0.45;79.27
30949;BME280;17637;51.984;21.208;2023-01-28T07:02:01;101059.81;;;-0.35;78.71
30949;BME280;17637;51.984;21.208;2023-01-28T07:04:33;101064.00;;;-0.29;78.33
30949;BME280;17637;51.984;21.208;2023-01-28T07:07:05;101065.63;;;-0.25;78.20
30949;BME280;17637;51.984;21.208;2023-01-28T07:09:37;101046.31;;;-0.45;78.29
30949;BME280;17637;51.984;21.208;2023-01-28T07:12:09;101026.88;;;-0.52;77.76
30949;BME280;17637;51.984;21.208;2023-01-28T07:14:41;101048.22;;;-0.58;78.70
30949;BME280;17637;51.984;21.208;2023-01-28T07:17:13;101045.72;;;-0.61;78.27
30949;BME280;17637;51.984;21.208;2023-01-28T07:19:45;101060.75;;;-0.41;78.29
30949;BME280;17637;51.984;21.208;2023-01-28T07:22:17;101086.28;;;-0.41;78.22
30949;BME280;17637;51.984;21.208;2023-01-28T07:24:49;101070.19;;;-0.46;78.00
30949;BME280;17637;51.984;21.208;2023-01-28T07:27:22;101071.97;;;-0.51;78.30
30949;BME280;17637;51.984;21.208;2023-01-28T07:29:54;101074.25;;;-0.32;77.95
30949;BME280;17637;51.984;21.208;2023-01-28T07:32:26;101081.72;;;-0.20;77.48
30949;BME280;17637;51.984;21.208;2023-01-28T07:34:58;101064.78;;;-0.27;77.32
30949;BME280;17637;51.984;21.208;2023-01-28T07:37:30;101060.63;;;-0.31;77.24
30949;BME280;17637;51.984;21.208;2023-01-28T07:40:02;101082.41;;;-0.10;77.16
30949;BME280;17637;51.984;21.208;2023-01-28T07:42:34;101025.88;;;-0.45;77.19
30949;BME280;17637;51.984;21.208;2023-01-28T07:45:06;101074.00;;;-0.17;76.73
30949;BME280;17637;51.984;21.208;2023-01-28T07:47:39;101075.75;;;-0.19;77.09
30949;BME280;17637;51.984;21.208;2023-01-28T07:50:11;101070.91;;;-0.38;77.52
30949;BME280;17637;51.984;21.208;2023-01-28T07:52:43;101069.22;;;-0.39;77.56
30949;BME280;17637;51.984;21.208;2023-01-28T07:55:17;101095.28;;;-0.15;77.23
30949;BME280;17637;51.984;21.208;2023-01-28T07:57:51;101089.41;;;-0.20;77.22
30949;BME280;17637;51.984;21.208;2023-01-28T08:00:25;101088.56;;;-0.22;77.50
30949;BME280;17637;51.984;21.208;2023-01-28T08:02:59;101072.56;;;-0.34;77.35
30949;BME280;17637;51.984;21.208;2023-01-28T08:05:40;101090.91;;;-0.08;77.16
30949;BME280;17637;51.984;21.208;2023-01-28T08:08:15;101080.03;;;-0.21;77.31
30949;BME280;17637;51.984;21.208;2023-01-28T08:10:47;101098.63;;;-0.13;77.39
30949;BME280;17637;51.984;21.208;2023-01-28T08:13:19;101076.81;;;-0.34;77.57
30949;BME280;17637;51.984;21.208;2023-01-28T08:15:55;101098.59;;;-0.10;77.23
30949;BME280;17637;51.984;21.208;2023-01-28T08:18:27;101080.75;;;-0.11;77.30
30949;BME280;17637;51.984;21.208;2023-01-28T08:20:59;101065.53;;;-0.21;77.18
30949;BME280;17637;51.984;21.208;2023-01-28T08:23:31;101051.41;;;-0.42;77.52
30949;BME280;17637;51.984;21.208;2023-01-28T08:26:05;101011.69;;;-0.61;77.13
30949;BME280;17637;51.984;21.208;2023-01-28T08:28:37;101049.78;;;-0.49;77.28
30949;BME280;17637;51.984;21.208;2023-01-28T08:31:09;101091.84;;;-0.15;77.31
30949;BME280;17637;51.984;21.208;2023-01-28T08:33:41;101086.06;;;-0.25;77.22
30949;BME280;17637;51.984;21.208;2023-01-28T08:36:13;101077.53;;;-0.26;77.46
30949;BME280;17637;51.984;21.208;2023-01-28T08:38:46;101084.31;;;-0.23;77.71
30949;BME280;17637;51.984;21.208;2023-01-28T08:41:22;101099.31;;;0.00;77.24
30949;BME280;17637;51.984;21.208;2023-01-28T08:43:54;101084.09;;;-0.09;76.84
30949;BME280;17637;51.984;21.208;2023-01-28T08:46:26;101078.19;;;-0.13;76.73
30949;BME280;17637;51.984;21.208;2023-01-28T08:48:58;101085.84;;;-0.13;76.84
30949;BME280;17637;51.984;21.208;2023-01-28T08:51:30;101071.41;;;-0.14;76.60
30949;BME280;17637;51.984;21.208;2023-01-28T08:54:02;101065.47;;;-0.16;76.37
30949;BME280;17637;51.984;21.208;2023-01-28T08:56:34;101067.06;;;-0.10;76.27
30949;BME280;17637;51.984;21.208;2023-01-28T08:59:06;101084.63;;;0.11;76.00
30949;BME280;17637;51.984;21.208;2023-01-28T09:01:39;101088.97;;;0.06;76.37
30949;BME280;17637;51.984;21.208;2023-01-28T09:04:11;101039.22;;;-0.26;76.22
30949;BME280;17637;51.984;21.208;2023-01-28T09:06:43;101091.84;;;-0.12;77.11
30949;BME280;17637;51.984;21.208;2023-01-28T09:09:15;101087.38;;;0.01;76.80
30949;BME280;17637;51.984;21.208;2023-01-28T09:11:47;101100.34;;;-0.13;77.18
30949;BME280;17637;51.984;21.208;2023-01-28T09:14:19;101067.41;;;-0.30;77.35
30949;BME280;17637;51.984;21.208;2023-01-28T09:16:51;101092.47;;;0.01;77.18
30949;BME280;17637;51.984;21.208;2023-01-28T09:19:23;101105.16;;;0.07;77.05
30949;BME280;17637;51.984;21.208;2023-01-28T09:21:55;101052.03;;;-0.27;77.12
30949;BME280;17637;51.984;21.208;2023-01-28T09:24:27;101091.66;;;-0.02;77.29
30949;BME280;17637;51.984;21.208;2023-01-28T09:26:59;101101.44;;;-0.27;78.03
30949;BME280;17637;51.984;21.208;2023-01-28T09:29:35;101126.56;;;-0.01;77.90
30949;BME280;17637;51.984;21.208;2023-01-28T09:32:08;101073.34;;;-0.30;77.70
30949;BME280;17637;51.984;21.208;2023-01-28T09:34:40;101119.25;;;-0.24;78.26
30949;BME280;17637;51.984;21.208;2023-01-28T09:37:12;101095.56;;;-0.35;78.59
30949;BME280;17637;51.984;21.208;2023-01-28T09:39:45;101112.50;;;-0.28;78.60
30949;BME280;17637;51.984;21.208;2023-01-28T09:45:47;101119.22;;;-0.22;78.89
30949;BME280;17637;51.984;21.208;2023-01-28T09:48:01;101098.84;;;-0.25;78.55
30949;BME280;17637;51.984;21.208;2023-01-28T09:50:38;101120.09;;;-0.23;78.69
30949;BME280;17637;51.984;21.208;2023-01-28T09:53:24;101117.28;;;-0.08;78.66
30949;BME280;17637;51.984;21.208;2023-01-28T09:56:01;101117.41;;;-0.15;78.51
30949;BME280;17637;51.984;21.208;2023-01-28T09:58:33;101088.75;;;-0.33;78.25
30949;BME280;17637;51.984;21.208;2023-01-28T10:04:11;101112.91;;;0.02;78.04
30949;BME280;17637;51.984;21.208;2023-01-28T10:18:10;101069.03;;;-0.25;77.96
30949;BME280;17637;51.984;21.208;2023-01-28T10:20:53;101072.44;;;-0.26;78.14
30949;BME280;17637;51.984;21.208;2023-01-28T10:26:22;101092.50;;;-0.03;78.00
30949;BME280;17637;51.984;21.208;2023-01-28T10:29:02;101096.75;;;0.00;78.23
30949;BME280;17637;51.984;21.208;2023-01-28T10:31:35;101096.72;;;0.02;77.90
30949;BME280;17637;51.984;21.208;2023-01-28T10:34:10;101090.75;;;0.03;78.03
30949;BME280;17637;51.984;21.208;2023-01-28T10:36:42;101016.69;;;-0.55;78.08
30949;BME280;17637;51.984;21.208;2023-01-28T10:39:16;101086.53;;;-0.02;78.11
30949;BME280;17637;51.984;21.208;2023-01-28T10:41:49;101060.28;;;-0.10;78.05
30949;BME280;17637;51.984;21.208;2023-01-28T10:44:37;101094.00;;;0.11;77.87
30949;BME280;17637;51.984;21.208;2023-01-28T10:47:29;101070.94;;;0.14;77.92
30949;BME280;17637;51.984;21.208;2023-01-28T10:50:04;101065.06;;;0.10;77.80
30949;BME280;17637;51.984;21.208;2023-01-28T10:52:36;101084.69;;;0.08;78.18
30949;BME280;17637;51.984;21.208;2023-01-28T10:55:13;101073.84;;;-0.08;77.58
30949;BME280;17637;51.984;21.208;2023-01-28T10:57:45;101081.44;;;0.00;78.05
30949;BME280;17637;51.984;21.208;2023-01-28T11:00:23;101088.69;;;0.25;77.60
30949;BME280;17637;51.984;21.208;2023-01-28T11:02:56;101076.19;;;0.06;77.68
30949;BME280;17637;51.984;21.208;2023-01-28T11:05:29;101084.00;;;-0.03;77.98
30949;BME280;17637;51.984;21.208;2023-01-28T11:08:12;101083.78;;;0.11;77.68
30949;BME280;17637;51.984;21.208;2023-01-28T11:10:46;101078.69;;;0.11;77.76
30949;BME280;17637;51.984;21.208;2023-01-28T11:13:22;101080.31;;;0.15;77.18
30949;BME280;17637;51.984;21.208;2023-01-28T11:16:21;101074.50;;;0.07;77.47
30949;BME280;17637;51.984;21.208;2023-01-28T11:18:58;101054.19;;;-0.03;77.32
30949;BME280;17637;51.984;21.208;2023-01-28T11:21:31;101061.13;;;-0.11;77.65
30949;BME280;17637;51.984;21.208;2023-01-28T11:24:13;101056.72;;;-0.03;77.22
30949;BME280;17637;51.984;21.208;2023-01-28T11:26:52;101046.41;;;0.04;76.94
30949;BME280;17637;51.984;21.208;2023-01-28T11:29:26;101066.69;;;0.14;77.22
30949;BME280;17637;51.984;21.208;2023-01-28T11:31:59;101064.41;;;-0.03;77.46
30949;BME280;17637;51.984;21.208;2023-01-28T11:34:33;101065.28;;;-0.04;77.33
30949;BME280;17637;51.984;21.208;2023-01-28T11:37:13;101064.28;;;0.07;77.92
30949;BME280;17637;51.984;21.208;2023-01-28T11:40:00;101059.78;;;0.20;75.92
30949;BME280;17637;51.984;21.208;2023-01-28T11:42:32;101042.75;;;0.19;76.67
30949;BME280;17637;51.984;21.208;2023-01-28T11:45:14;101053.69;;;0.27;76.89
30949;BME280;17637;51.984;21.208;2023-01-28T11:48:05;101060.72;;;0.15;76.88
30949;BME280;17637;51.984;21.208;2023-01-28T11:50:49;101026.16;;;-0.07;76.54
30949;BME280;17637;51.984;21.208;2023-01-28T11:53:41;101039.47;;;0.12;76.18
30949;BME280;17637;51.984;21.208;2023-01-28T12:05:31;101040.16;;;0.20;75.33
30949;BME280;17637;51.984;21.208;2023-01-28T12:08:20;101045.47;;;0.09;75.95
30949;BME280;17637;51.984;21.208;2023-01-28T12:22:34;101020.13;;;-0.03;76.99
30949;BME280;17637;51.984;21.208;2023-01-28T12:25:48;101047.25;;;0.06;77.06
30949;BME280;17637;51.984;21.208;2023-01-28T12:39:34;101042.19;;;0.01;77.34
30949;BME280;17637;51.984;21.208;2023-01-28T12:42:19;101033.66;;;0.02;77.21
30949;BME280;17637;51.984;21.208;2023-01-28T12:45:01;101000.91;;;-0.24;77.51
30949;BME280;17637;51.984;21.208;2023-01-28T12:47:37;101050.56;;;0.11;77.78
30949;BME280;17637;51.984;21.208;2023-01-28T12:50:16;101028.09;;;-0.22;78.22
30949;BME280;17637;51.984;21.208;2023-01-28T12:53:01;100995.78;;;-0.26;78.08
30949;BME280;17637;51.984;21.208;2023-01-28T12:55:39;101034.63;;;-0.04;77.53
30949;BME280;17637;51.984;21.208;2023-01-28T12:58:20;101018.72;;;-0.21;76.82
30949;BME280;17637;51.984;21.208;2023-01-28T13:00:59;101029.56;;;-0.07;76.66
30949;BME280;17637;51.984;21.208;2023-01-28T13:06:18;101050.00;;;-0.07;78.33
30949;BME280;17637;51.984;21.208;2023-01-28T13:08:59;101030.56;;;-0.17;78.47
30949;BME280;17637;51.984;21.208;2023-01-28T13:11:34;101042.19;;;0.01;78.27
30949;BME280;17637;51.984;21.208;2023-01-28T13:14:09;101039.91;;;-0.14;78.53
30949;BME280;17637;51.984;21.208;2023-01-28T13:16:43;101036.88;;;-0.38;79.06
30949;BME280;17637;51.984;21.208;2023-01-28T13:21:50;101032.28;;;-0.18;78.64
30949;BME280;17637;51.984;21.208;2023-01-28T13:24:30;101047.53;;;-0.11;78.60
30949;BME280;17637;51.984;21.208;2023-01-28T13:27:11;101039.13;;;-0.20;78.74
30949;BME280;17637;51.984;21.208;2023-01-28T13:29:47;101039.09;;;-0.17;78.48
30949;BME280;17637;51.984;21.208;2023-01-28T13:32:32;101037.56;;;-0.28;78.76
30949;BME280;17637;51.984;21.208;2023-01-28T13:35:06;101052.09;;;-0.30;79.02
30949;BME280;17637;51.984;21.208;2023-01-28T13:37:56;101033.38;;;-0.32;78.83
30949;BME280;17637;51.984;21.208;2023-01-28T13:40:30;101037.03;;;-0.49;78.91
30949;BME280;17637;51.984;21.208;2023-01-28T13:43:05;101049.47;;;-0.27;78.98
30949;BME280;17637;51.984;21.208;2023-01-28T13:46:12;101058.78;;;-0.25;78.87
30949;BME280;17637;51.984;21.208;2023-01-28T13:48:50;101047.91;;;-0.36;79.52
30949;BME280;17637;51.984;21.208;2023-01-28T13:51:33;101052.94;;;-0.31;79.16
30949;BME280;17637;51.984;21.208;2023-01-28T13:54:18;101068.97;;;-0.23;79.42
30949;BME280;17637;51.984;21.208;2023-01-28T13:59:59;101071.75;;;-0.36;79.83
30949;BME280;17637;51.984;21.208;2023-01-28T14:20:21;101064.38;;;-0.56;80.13
30949;BME280;17637;51.984;21.208;2023-01-28T14:23:00;101043.13;;;-0.59;80.38
30949;BME280;17637;51.984;21.208;2023-01-28T14:28:39;101055.88;;;-0.56;80.09
30949;BME280;17637;51.984;21.208;2023-01-28T14:31:22;101063.44;;;-0.48;80.27
30949;BME280;17637;51.984;21.208;2023-01-28T14:34:21;101046.53;;;-0.57;80.29
30949;BME280;17637;51.984;21.208;2023-01-28T14:37:04;101060.94;;;-0.53;80.20
30949;BME280;17637;51.984;21.208;2023-01-28T14:39:48;101047.38;;;-0.58;80.03
30949;BME280;17637;51.984;21.208;2023-01-28T14:42:43;101057.03;;;-0.79;80.44
30949;BME280;17637;51.984;21.208;2023-01-28T15:02:20;101075.25;;;-0.43;79.38
30949;BME280;17637;51.984;21.208;2023-01-28T15:04:52;101073.66;;;-0.52;79.48
30949;BME280;17637;51.984;21.208;2023-01-28T15:07:26;101067.63;;;-0.47;79.76
30949;BME280;17637;51.984;21.208;2023-01-28T15:10:13;101066.69;;;-0.40;79.50
30949;BME280;17637;51.984;21.208;2023-01-28T15:13:07;101071.66;;;-0.31;79.27
30949;BME280;17637;51.984;21.208;2023-01-28T15:15:45;101064.25;;;-0.48;79.08
30949;BME280;17637;51.984;21.208;2023-01-28T15:18:31;101059.16;;;-0.48;78.91
30949;BME280;17637;51.984;21.208;2023-01-28T15:21:05;101040.66;;;-0.64;79.13
30949;BME280;17637;51.984;21.208;2023-01-28T15:23:39;101080.28;;;-0.37;78.58
30949;BME280;17637;51.984;21.208;2023-01-28T15:26:18;101076.00;;;-0.36;78.49
30949;BME280;17637;51.984;21.208;2023-01-28T15:28:52;101072.97;;;-0.61;78.48
30949;BME280;17637;51.984;21.208;2023-01-28T15:31:29;101078.75;;;-0.50;78.89
30949;BME280;17637;51.984;21.208;2023-01-28T15:34:13;101079.56;;;-0.48;78.70